createdAt,value
2019-05-09T00:00:37.279Z,97889.17
2019-05-09T00:03:15.097Z,97888.22
2019-05-09T00:05:44.110Z,97881.27
2019-05-09T00:08:14.009Z,97878.16
2019-05-09T00:10:44.792Z,97879.03
2019-05-09T00:13:13.680Z,97872.91
2019-05-09T00:15:43.504Z,97866.78
2019-05-09T00:18:10.963Z,97872.22
2019-05-09T00:20:44.707Z,97877.52
2019-05-09T00:23:13.528Z,97871.09
2019-05-09T00:25:43.313Z,97878.94
2019-05-09T00:28:13.142Z,97879.47
2019-05-09T00:30:56.815Z,97880.16
2019-05-09T00:33:27.284Z,97882.19
2019-05-09T00:35:55.054Z,97878.27
2019-05-09T00:38:23.957Z,97884.50
2019-05-09T00:41:27.582Z,97889.71
2019-05-09T00:44:03.985Z,97895.65
2019-05-09T00:46:43.007Z,97898.13
2019-05-09T00:49:23.535Z,97902.22
2019-05-09T00:51:51.476Z,97907.22
2019-05-09T00:54:19.277Z,97903.30
2019-05-09T00:56:47.027Z,97909.29
2019-05-09T00:59:14.810Z,97911.99
2019-05-09T01:01:54.299Z,97912.74
2019-05-09T01:04:24.110Z,97910.53
2019-05-09T01:06:53.959Z,97913.13
2019-05-09T01:09:24.012Z,97914.23
2019-05-09T01:11:53.375Z,97904.20
2019-05-09T01:14:23.351Z,97903.13
2019-05-09T01:16:50.919Z,97901.60
2019-05-09T01:19:18.652Z,97903.95
2019-05-09T01:21:47.643Z,97911.83
2019-05-09T01:24:15.432Z,97904.25
2019-05-09T01:26:43.604Z,97903.17
2019-05-09T01:29:13.675Z,97909.32
2019-05-09T01:32:19.861Z,97901.58
2019-05-09T01:34:47.647Z,97904.97
2019-05-09T01:37:15.427Z,97912.21
2019-05-09T01:39:44.073Z,97916.48
2019-05-09T01:42:13.740Z,97917.70
2019-05-09T01:44:43.456Z,97923.33
2019-05-09T01:47:11.471Z,97927.34
2019-05-09T01:49:39.258Z,97929.27
2019-05-09T01:52:07.108Z,97924.91
2019-05-09T01:54:37.831Z,97927.55
2019-05-09T01:57:05.600Z,97932.42
2019-05-09T01:59:34.167Z,97925.70
2019-05-09T02:02:08.102Z,97923.01
2019-05-09T02:04:33.420Z,97922.73
2019-05-09T02:07:03.818Z,97918.13
2019-05-09T02:09:31.137Z,97913.97
2019-05-09T02:11:58.880Z,97915.77
2019-05-09T02:14:54.131Z,97911.53
2019-05-09T02:17:35.752Z,97911.23
2019-05-09T02:20:04.190Z,97908.67
2019-05-09T02:22:35.060Z,97912.34
2019-05-09T02:25:05.216Z,97911.61
2019-05-09T02:27:33.274Z,97912.64
2019-05-09T02:30:01.255Z,97908.55
2019-05-09T02:32:29.166Z,97901.66
2019-05-09T02:34:56.946Z,97905.58
2019-05-09T02:37:24.742Z,97907.81
2019-05-09T02:39:52.550Z,97908.30
2019-05-09T02:42:27.316Z,97907.30
2019-05-09T02:44:55.270Z,97908.55
2019-05-09T02:47:24.536Z,97907.55
2019-05-09T02:49:52.364Z,97907.05
2019-05-09T02:52:25.163Z,97904.98
2019-05-09T02:54:52.945Z,97902.39
2019-05-09T02:57:20.713Z,97908.43
2019-05-09T03:00:10.643Z,97907.52
2019-05-09T03:03:02.110Z,97906.67
2019-05-09T03:05:30.063Z,97908.89
2019-05-09T03:07:58.550Z,97906.47
2019-05-09T03:10:29.230Z,97907.41
2019-05-09T03:12:59.141Z,97914.79
2019-05-09T03:15:28.813Z,97907.00
2019-05-09T03:17:55.599Z,97910.59
2019-05-09T03:20:32.245Z,97914.76
2019-05-09T03:23:00.066Z,97914.27
2019-05-09T03:25:28.959Z,97910.94
2019-05-09T03:28:03.512Z,97913.17
2019-05-09T03:30:39.658Z,97916.78
2019-05-09T03:33:10.412Z,97911.11
2019-05-09T03:35:37.860Z,97912.27
2019-05-09T03:38:08.265Z,97910.59
2019-05-09T03:40:37.728Z,97907.72
2019-05-09T03:43:07.923Z,97908.13
2019-05-09T03:45:59.068Z,97905.04
2019-05-09T03:48:33.117Z,97908.09
2019-05-09T03:51:01.061Z,97909.28
2019-05-09T03:53:28.832Z,97905.37
2019-05-09T03:55:58.633Z,97907.11
2019-05-09T03:58:28.141Z,97910.19
2019-05-09T04:00:57.955Z,97911.63
2019-05-09T04:03:27.672Z,97911.06
2019-05-09T04:05:59.961Z,97916.09
2019-05-09T04:08:24.920Z,97918.92
2019-05-09T04:10:52.921Z,97922.84
2019-05-09T04:13:24.885Z,97922.97
2019-05-09T04:15:52.645Z,97920.50
2019-05-09T04:18:20.451Z,97922.92
2019-05-09T04:20:48.387Z,97918.63
2019-05-09T04:23:18.421Z,97919.98
2019-05-09T04:25:52.421Z,97921.02
2019-05-09T04:28:20.255Z,97928.95
2019-05-09T04:30:48.032Z,97929.13
2019-05-09T04:33:17.736Z,97927.06
2019-05-09T04:35:47.525Z,97921.64
2019-05-09T04:38:15.300Z,97920.70
2019-05-09T04:40:45.039Z,97922.17
2019-05-09T04:43:18.616Z,97919.91
2019-05-09T04:45:54.938Z,97924.48
2019-05-09T04:48:29.694Z,97921.02
2019-05-09T04:51:28.407Z,97927.07
2019-05-09T04:53:58.345Z,97931.84
2019-05-09T04:56:31.093Z,97929.55
2019-05-09T04:58:58.866Z,97932.30
2019-05-09T05:02:04.322Z,97941.03
2019-05-09T05:04:32.121Z,97937.73
2019-05-09T05:06:59.898Z,97935.02
2019-05-09T05:09:27.898Z,97931.06
2019-05-09T05:11:57.977Z,97933.69
2019-05-09T05:14:28.147Z,97931.33
2019-05-09T05:17:06.710Z,97933.09
2019-05-09T05:19:28.504Z,97932.09
2019-05-09T05:22:01.057Z,97932.48
2019-05-09T05:24:39.970Z,97929.89
2019-05-09T05:27:08.377Z,97934.79
2019-05-09T05:29:38.327Z,97933.17
2019-05-09T05:32:09.787Z,97936.70
2019-05-09T05:34:43.927Z,97933.59
2019-05-09T05:37:11.719Z,97940.02
2019-05-09T05:39:39.846Z,97941.91
2019-05-09T05:42:08.450Z,97941.88
2019-05-09T05:44:38.483Z,97948.76
2019-05-09T05:47:29.336Z,97943.47
2019-05-09T05:49:57.804Z,97942.34
2019-05-09T05:52:27.721Z,97937.13
2019-05-09T05:54:55.374Z,97938.86
2019-05-09T05:57:23.160Z,97941.27
2019-05-09T05:59:50.921Z,97941.23
2019-05-09T06:02:18.975Z,97943.73
2019-05-09T06:04:48.638Z,97946.47
2019-05-09T06:07:18.503Z,97940.22
2019-05-09T06:09:47.704Z,97945.48
2019-05-09T06:12:18.349Z,97945.23
2019-05-09T06:14:45.518Z,97939.77
2019-05-09T06:17:13.911Z,97941.28
2019-05-09T06:19:41.742Z,97941.03
2019-05-09T06:22:09.669Z,97938.92
2019-05-09T06:24:38.771Z,97940.64
2019-05-09T06:27:09.974Z,97939.70
2019-05-09T06:29:38.542Z,97935.81
2019-05-09T06:32:11.262Z,97942.53
2019-05-09T06:34:42.024Z,97940.69
2019-05-09T06:37:09.231Z,97937.41
2019-05-09T06:39:37.973Z,97932.20
2019-05-09T06:42:11.164Z,97933.78
2019-05-09T06:45:04.649Z,97936.89
2019-05-09T06:47:34.695Z,97940.30
2019-05-09T06:50:07.984Z,97939.34
2019-05-09T06:52:37.556Z,97946.13
2019-05-09T06:55:08.441Z,97947.41
2019-05-09T06:57:38.993Z,97943.78
2019-05-09T07:00:12.440Z,97931.48
2019-05-09T07:02:47.735Z,97937.09
2019-05-09T07:05:40.674Z,97941.92
2019-05-09T07:08:12.215Z,97954.11
2019-05-09T07:10:40.025Z,97950.39
2019-05-09T07:13:08.093Z,97932.77
2019-05-09T07:15:37.618Z,97931.11
2019-05-09T07:18:08.106Z,97966.81
2019-05-09T07:20:37.906Z,97901.02
2019-05-09T07:23:08.386Z,97975.86
2019-05-09T07:26:04.250Z,97965.95
2019-05-09T07:28:32.028Z,97959.91
2019-05-09T07:31:28.932Z,97944.03
2019-05-09T07:34:10.109Z,97933.97
2019-05-09T07:36:38.487Z,97889.77
2019-05-09T07:39:08.732Z,97875.09
2019-05-09T07:41:38.442Z,97908.51
2019-05-09T07:44:07.599Z,97885.47
2019-05-09T07:46:41.873Z,97867.56
2019-05-09T07:49:12.300Z,97874.73
2019-05-09T07:51:40.186Z,97873.81
2019-05-09T07:54:21.085Z,97876.39
2019-05-09T07:56:37.928Z,97875.22
2019-05-09T07:59:07.697Z,97880.41
2019-05-09T08:01:38.262Z,97895.75
2019-05-09T08:04:07.314Z,97895.25
2019-05-09T08:06:34.939Z,97897.27
2019-05-09T08:09:05.203Z,97892.95
2019-05-09T08:11:32.991Z,97893.88
2019-05-09T08:14:00.903Z,97898.52
2019-05-09T08:16:28.663Z,97899.08
2019-05-09T08:18:58.914Z,97907.92
2019-05-09T08:21:27.724Z,97909.73
2019-05-09T08:23:57.860Z,97912.81
2019-05-09T08:26:29.676Z,97910.73
2019-05-09T08:28:55.423Z,97905.91
2019-05-09T08:31:23.835Z,97898.03
2019-05-09T08:33:51.634Z,97898.17
2019-05-09T08:36:20.270Z,97903.42
2019-05-09T08:38:48.140Z,97903.63
2019-05-09T08:41:18.418Z,97890.98
2019-05-09T08:43:48.166Z,97891.28
2019-05-09T08:46:15.251Z,97897.37
2019-05-09T08:48:43.431Z,97892.85
2019-05-09T08:51:17.874Z,97893.02
2019-05-09T08:54:05.208Z,97896.05
2019-05-09T08:56:33.018Z,97893.53
2019-05-09T08:59:02.138Z,97895.73
2019-05-09T09:01:50.565Z,97897.56
2019-05-09T09:04:00.534Z,97897.48
2019-05-09T09:06:28.317Z,97896.89
2019-05-09T09:08:57.558Z,97895.98
2019-05-09T09:11:28.025Z,97898.98
2019-05-09T09:13:57.731Z,97897.47
2019-05-09T09:16:25.469Z,97896.93
2019-05-09T09:18:53.289Z,97889.98
2019-05-09T09:21:21.218Z,97892.25
2019-05-09T09:23:50.858Z,97897.61
2019-05-09T09:26:18.654Z,97899.34
2019-05-09T09:28:48.435Z,97900.48
2019-05-09T09:31:18.013Z,97900.20
2019-05-09T09:33:48.042Z,97896.44
2019-05-09T09:36:17.772Z,97897.56
2019-05-09T09:38:45.340Z,97892.67
2019-05-09T09:41:13.415Z,97893.06
2019-05-09T09:43:41.230Z,97881.03
2019-05-09T09:46:14.317Z,97880.67
2019-05-09T09:48:39.076Z,97881.11
2019-05-09T09:51:08.057Z,97886.91
2019-05-09T09:53:38.250Z,97886.00
2019-05-09T09:56:05.788Z,97879.91
2019-05-09T09:58:33.544Z,97885.89
2019-05-09T10:01:18.213Z,97881.45
2019-05-09T10:03:47.444Z,97871.09
2019-05-09T10:06:15.487Z,97863.95
2019-05-09T10:08:43.272Z,97858.44
2019-05-09T10:11:11.081Z,97853.75
2019-05-09T10:13:38.858Z,97842.83
2019-05-09T10:16:28.679Z,97845.85
2019-05-09T10:18:58.769Z,97845.85
2019-05-09T10:21:30.052Z,97844.67
2019-05-09T10:23:57.845Z,97841.30
2019-05-09T10:26:28.187Z,97840.98
2019-05-09T10:28:55.283Z,97839.20
2019-05-09T10:31:23.096Z,97829.14
2019-05-09T10:33:50.930Z,97828.56
2019-05-09T10:36:18.744Z,97818.82
2019-05-09T10:38:48.047Z,97824.91
2019-05-09T10:41:17.908Z,97824.69
2019-05-09T10:44:01.154Z,97843.97
2019-05-09T10:46:58.850Z,97838.85
2019-05-09T10:49:23.999Z,97838.90
2019-05-09T10:51:51.781Z,97843.96
2019-05-09T10:54:19.520Z,97835.67
2019-05-09T10:56:48.740Z,97835.11
2019-05-09T10:59:18.288Z,97824.35
2019-05-09T11:01:49.386Z,97830.40
2019-05-09T11:04:18.022Z,97825.36
2019-05-09T11:06:45.852Z,97826.63
2019-05-09T11:09:18.263Z,97830.39
2019-05-09T11:11:48.193Z,97824.75
2019-05-09T11:14:31.543Z,97824.23
2019-05-09T11:16:49.053Z,97823.32
2019-05-09T11:19:14.776Z,97825.31
2019-05-09T11:21:42.559Z,97821.92
2019-05-09T11:24:10.326Z,97824.03
2019-05-09T11:26:39.829Z,97826.31
2019-05-09T11:29:08.109Z,97822.23
2019-05-09T11:31:38.463Z,97822.34
2019-05-09T11:34:08.782Z,97827.80
2019-05-09T11:36:37.961Z,97835.24
2019-05-09T11:39:10.492Z,97844.99
2019-05-09T11:41:38.353Z,97848.17
2019-05-09T11:44:08.542Z,97844.85
2019-05-09T11:46:38.232Z,97840.80
2019-05-09T11:49:08.293Z,97838.36
2019-05-09T11:51:36.361Z,97835.84
2019-05-09T11:54:04.146Z,97840.03
2019-05-09T11:56:32.083Z,97839.43
2019-05-09T11:59:00.389Z,97840.58
2019-05-09T12:01:29.304Z,97841.30
2019-05-09T12:03:57.747Z,97840.03
2019-05-09T12:06:28.517Z,97843.92
2019-05-09T12:08:55.563Z,97845.41
2019-05-09T12:11:28.466Z,97847.89
2019-05-09T12:13:58.188Z,97843.37
2019-05-09T12:16:27.993Z,97844.68
2019-05-09T12:18:58.115Z,97844.97
2019-05-09T12:21:27.972Z,97843.47
2019-05-09T12:23:57.905Z,97853.06
2019-05-09T12:26:25.182Z,97846.00
2019-05-09T12:28:53.035Z,97840.48
2019-05-09T12:31:23.240Z,97839.78
2019-05-09T12:33:51.123Z,97834.66
2019-05-09T12:36:19.385Z,97828.27
2019-05-09T12:38:49.798Z,97824.91
2019-05-09T12:41:22.228Z,97820.01
2019-05-09T12:43:50.143Z,97816.34
2019-05-09T12:46:18.081Z,97817.58
2019-05-09T12:48:47.973Z,97813.74
2019-05-09T12:51:28.233Z,97814.25
2019-05-09T12:53:57.830Z,97809.80
2019-05-09T12:56:25.275Z,97807.89
2019-05-09T12:58:53.119Z,97813.78
2019-05-09T13:01:20.892Z,97808.91
2019-05-09T13:03:48.758Z,97811.90
2019-05-09T13:06:19.823Z,97812.98
2019-05-09T13:08:47.990Z,97808.69
2019-05-09T13:11:15.940Z,97801.05
2019-05-09T13:13:47.847Z,97802.17
2019-05-09T13:16:47.449Z,97794.00
2019-05-09T13:19:12.736Z,97789.72
2019-05-09T13:21:40.548Z,97789.52
2019-05-09T13:24:08.685Z,97793.73
2019-05-09T13:26:38.563Z,97792.39
2019-05-09T13:29:08.063Z,97790.08
2019-05-09T13:31:39.281Z,97789.42
2019-05-09T13:34:08.053Z,97786.83
2019-05-09T13:36:35.603Z,97791.16
2019-05-09T13:39:08.635Z,97784.95
2019-05-09T13:41:37.605Z,97785.57
2019-05-09T13:44:10.825Z,97789.33
2019-05-09T13:46:35.615Z,97795.75
2019-05-09T13:49:11.427Z,97790.30
2019-05-09T13:51:33.723Z,97788.88
2019-05-09T13:54:01.711Z,97787.12
2019-05-09T13:56:29.562Z,97794.00
2019-05-09T13:58:58.112Z,97790.34
2019-05-09T14:01:26.495Z,97791.14
2019-05-09T14:03:54.362Z,97791.16
2019-05-09T14:06:22.284Z,97801.05
2019-05-09T14:08:50.123Z,97802.80
2019-05-09T14:11:19.322Z,97795.70
2019-05-09T14:13:48.696Z,97796.52
2019-05-09T14:16:22.011Z,97795.56
2019-05-09T14:18:48.534Z,97794.02
2019-05-09T14:21:21.421Z,97790.92
2019-05-09T14:23:59.994Z,97794.06
2019-05-09T14:26:17.939Z,97798.57
2019-05-09T14:28:48.874Z,97799.59
2019-05-09T14:31:20.980Z,97792.55
2019-05-09T14:33:48.888Z,97792.84
2019-05-09T14:36:16.835Z,97791.03
2019-05-09T14:38:44.804Z,97789.32
2019-05-09T14:41:19.230Z,97765.48
2019-05-09T14:43:48.319Z,97782.83
2019-05-09T14:46:18.173Z,97776.88
2019-05-09T14:48:48.171Z,97781.67
2019-05-09T14:51:18.521Z,97784.26
2019-05-09T14:53:48.443Z,97786.56
2019-05-09T14:56:16.109Z,97789.75
2019-05-09T14:58:44.074Z,97790.37
2019-05-09T15:01:12.262Z,97784.28
2019-05-09T15:03:40.283Z,97782.47
2019-05-09T15:06:08.910Z,97778.38
2019-05-09T15:08:38.265Z,97778.52
2019-05-09T15:11:09.800Z,97774.84
2019-05-09T15:13:36.573Z,97771.52
2019-05-09T15:16:04.527Z,97773.35
2019-05-09T15:18:32.449Z,97764.38
2019-05-09T15:21:00.422Z,97770.30
2019-05-09T15:23:29.329Z,97769.28
2019-05-09T15:25:58.154Z,97772.03
2019-05-09T15:28:26.233Z,97778.20
2019-05-09T15:30:56.029Z,97770.38
2019-05-09T15:33:24.073Z,97764.25
2019-05-09T15:35:51.963Z,97757.26
2019-05-09T15:38:22.394Z,97754.92
2019-05-09T15:40:49.757Z,97750.91
2019-05-09T15:43:18.578Z,97750.66
2019-05-09T15:45:53.107Z,97757.48
2019-05-09T15:48:21.119Z,97756.81
2019-05-09T15:50:49.119Z,97758.72
2019-05-09T15:53:18.500Z,97755.02
2019-05-09T15:55:48.016Z,97755.11
2019-05-09T15:58:18.780Z,97753.81
2019-05-09T16:00:47.751Z,97755.96
2019-05-09T16:03:18.465Z,97753.24
2019-05-09T16:05:47.923Z,97745.14
2019-05-09T16:08:18.278Z,97749.44
2019-05-09T16:10:45.720Z,97743.53
2019-05-09T16:13:14.737Z,97745.26
2019-05-09T16:15:43.318Z,97748.84
2019-05-09T16:18:11.243Z,97749.92
2019-05-09T16:20:41.279Z,97745.31
2019-05-09T16:23:11.069Z,97748.73
2019-05-09T16:25:39.182Z,97747.75
2019-05-09T16:28:08.077Z,97740.84
2019-05-09T16:30:38.297Z,97748.25
2019-05-09T16:33:08.147Z,97749.53
2019-05-09T16:35:38.129Z,97751.84
2019-05-09T16:38:10.179Z,97754.83
2019-05-09T16:40:38.385Z,97757.89
2019-05-09T16:43:08.879Z,97760.34
2019-05-09T16:45:37.728Z,97750.11
2019-05-09T16:48:11.099Z,97756.50
2019-05-09T16:50:35.654Z,97760.73
2019-05-09T16:53:03.750Z,97767.00
2019-05-09T16:55:35.292Z,97763.30
2019-05-09T16:58:03.276Z,97765.61
2019-05-09T17:00:42.426Z,97776.33
2019-05-09T17:03:10.521Z,97777.55
2019-05-09T17:05:39.002Z,97790.55
2019-05-09T17:08:08.227Z,97794.15
2019-05-09T17:10:36.761Z,97794.31
2019-05-09T17:13:07.845Z,97792.03
2019-05-09T17:15:38.738Z,97799.13
2019-05-09T17:18:07.442Z,97807.50
2019-05-09T17:20:42.325Z,97807.80
2019-05-09T17:23:17.046Z,97810.69
2019-05-09T17:25:45.030Z,97818.47
2019-05-09T17:28:13.120Z,97826.95
2019-05-09T17:30:41.156Z,97830.78
2019-05-09T17:33:09.141Z,97837.42
2019-05-09T17:35:38.675Z,97846.00
2019-05-09T17:38:08.671Z,97853.91
2019-05-09T17:40:39.041Z,97855.64
2019-05-09T17:43:08.267Z,97858.60
2019-05-09T17:45:41.713Z,97867.47
2019-05-09T17:48:08.592Z,97873.14
2019-05-09T17:50:38.440Z,97877.63
2019-05-09T17:53:37.204Z,97883.77
2019-05-09T17:56:10.546Z,97885.23
2019-05-09T17:58:37.837Z,97891.59
2019-05-09T18:01:07.644Z,97892.73
2019-05-09T18:03:38.211Z,97902.32
2019-05-09T18:06:05.404Z,97905.44
2019-05-09T18:08:33.438Z,97918.33
2019-05-09T18:11:01.558Z,97920.36
2019-05-09T18:13:31.599Z,97919.34
2019-05-09T18:15:59.512Z,97920.14
2019-05-09T18:18:28.617Z,97926.08
2019-05-09T18:21:12.077Z,97935.08
2019-05-09T18:23:40.129Z,97944.20
2019-05-09T18:26:08.120Z,97946.03
2019-05-09T18:28:39.001Z,97954.99
2019-05-09T18:31:08.007Z,97960.77
2019-05-09T18:33:49.576Z,97960.94
2019-05-09T18:36:17.544Z,97969.66
2019-05-09T18:38:47.853Z,97974.49
2019-05-09T18:41:17.693Z,97984.69
2019-05-09T18:43:47.405Z,97988.41
2019-05-09T18:46:17.521Z,97996.48
2019-05-09T18:48:45.442Z,97997.47
2019-05-09T18:51:33.141Z,98000.77
2019-05-09T18:54:02.147Z,97999.66
2019-05-09T18:56:30.249Z,98003.56
2019-05-09T18:58:58.250Z,98008.98
2019-05-09T19:01:26.288Z,98019.00
2019-05-09T19:03:54.893Z,98023.58
2019-05-09T19:06:23.411Z,98029.34
2019-05-09T19:08:54.367Z,98030.44
2019-05-09T19:11:23.208Z,98038.09
2019-05-09T19:13:51.789Z,98039.98
2019-05-09T19:16:31.267Z,98047.25
2019-05-09T19:19:28.464Z,98057.20
2019-05-09T19:22:04.446Z,98066.89
2019-05-09T19:24:30.189Z,98068.43
2019-05-09T19:26:58.529Z,98076.02
2019-05-09T19:29:27.095Z,98084.06
2019-05-09T19:31:55.335Z,98094.18
2019-05-09T19:34:23.496Z,98094.95
2019-05-09T19:36:51.423Z,98103.53
2019-05-09T19:39:19.472Z,98103.94
2019-05-09T19:41:47.686Z,98108.81
2019-05-09T19:44:17.796Z,98115.46
2019-05-09T19:46:46.299Z,98117.67
2019-05-09T19:49:14.316Z,98123.83
2019-05-09T19:51:42.642Z,98125.52
2019-05-09T19:54:10.663Z,98121.34
2019-05-09T19:56:38.637Z,98126.57
2019-05-09T19:59:08.096Z,98120.63
2019-05-09T20:01:36.798Z,98127.14
2019-05-09T20:04:04.978Z,98135.00
2019-05-09T20:06:33.424Z,98140.49
2019-05-09T20:09:02.569Z,98144.34
2019-05-09T20:11:52.998Z,98140.81
2019-05-09T20:14:25.228Z,98139.37
2019-05-09T20:16:55.840Z,98148.56
2019-05-09T20:19:24.150Z,98156.25
2019-05-09T20:21:52.700Z,98158.09
2019-05-09T20:24:21.084Z,98165.48
2019-05-09T20:26:49.086Z,98171.90
2019-05-09T20:29:17.143Z,98173.28
2019-05-09T20:31:45.162Z,98179.37
2019-05-09T20:34:13.184Z,98184.26
2019-05-09T20:36:41.222Z,98183.20
2019-05-09T20:39:09.255Z,98197.42
2019-05-09T20:41:37.294Z,98202.63
2019-05-09T20:44:05.365Z,98186.67
2019-05-09T20:46:33.407Z,98204.36
2019-05-09T20:49:01.418Z,98205.03
2019-05-09T20:51:29.381Z,98207.36
2019-05-09T20:53:57.382Z,98212.91
2019-05-09T20:56:25.732Z,98219.14
2019-05-09T20:58:53.734Z,98221.62
2019-05-09T21:01:21.650Z,98222.70
2019-05-09T21:03:59.634Z,98230.52
2019-05-09T21:06:19.568Z,98227.38
2019-05-09T21:08:47.527Z,98228.67
2019-05-09T21:11:15.441Z,98228.13
2019-05-09T21:13:48.451Z,98228.38
2019-05-09T21:16:13.318Z,98231.41
2019-05-09T21:18:41.465Z,98236.86
2019-05-09T21:21:09.506Z,98232.97
2019-05-09T21:23:37.520Z,98234.72
2019-05-09T21:26:05.472Z,98241.25
2019-05-09T21:28:33.376Z,98243.45
2019-05-09T21:31:01.229Z,98244.59
2019-05-09T21:33:29.496Z,98248.92
2019-05-09T21:35:58.554Z,98255.75
2019-05-09T21:38:26.483Z,98255.14
2019-05-09T21:40:54.357Z,98258.86
2019-05-09T21:43:22.318Z,98255.87
2019-05-09T21:45:50.218Z,98256.56
2019-05-09T21:48:18.130Z,98254.20
2019-05-09T21:50:48.298Z,98255.49
2019-05-09T21:53:16.124Z,98255.98
2019-05-09T21:55:44.042Z,98259.08
2019-05-09T21:58:11.882Z,98262.20
2019-05-09T22:00:41.896Z,98262.11
2019-05-09T22:03:10.344Z,98268.63
2019-05-09T22:05:38.195Z,98274.32
2019-05-09T22:08:06.045Z,98278.51
2019-05-09T22:10:33.972Z,98277.23
2019-05-09T22:13:01.975Z,98287.56
2019-05-09T22:15:29.895Z,98287.36
2019-05-09T22:17:57.681Z,98291.97
2019-05-09T22:20:25.423Z,98295.09
2019-05-09T22:22:53.332Z,98298.81
2019-05-09T22:25:21.159Z,98305.14
2019-05-09T22:27:48.994Z,98303.89
2019-05-09T22:30:17.504Z,98306.75
2019-05-09T22:32:45.264Z,98302.11
2019-05-09T22:35:14.421Z,98303.75
2019-05-09T22:37:42.203Z,98316.56
2019-05-09T22:40:12.643Z,98317.39
2019-05-09T22:42:40.464Z,98319.09
2019-05-09T22:45:09.716Z,98322.88
2019-05-09T22:47:37.474Z,98319.82
2019-05-09T22:50:05.602Z,98320.25
2019-05-09T22:52:33.373Z,98320.25
2019-05-09T22:55:01.175Z,98326.38
2019-05-09T22:57:28.975Z,98329.23
2019-05-09T22:59:56.748Z,98329.34
2019-05-09T23:02:24.550Z,98332.40
2019-05-09T23:04:52.276Z,98335.89
2019-05-09T23:07:20.082Z,98328.97
2019-05-09T23:09:47.900Z,98333.34
2019-05-09T23:12:20.931Z,98337.09
2019-05-09T23:14:48.672Z,98333.24
2019-05-09T23:17:16.498Z,98340.02
2019-05-09T23:19:44.261Z,98337.77
2019-05-09T23:22:12.193Z,98351.73
2019-05-09T23:24:40.142Z,98346.89
2019-05-09T23:27:10.421Z,98348.94
2019-05-09T23:29:38.187Z,98350.42
2019-05-09T23:32:27.406Z,98350.84
2019-05-09T23:34:55.144Z,98352.78
2019-05-09T23:37:22.915Z,98345.70
2019-05-09T23:39:50.953Z,98352.82
2019-05-09T23:42:18.975Z,98352.27
2019-05-09T23:44:46.770Z,98354.11
2019-05-09T23:47:14.606Z,98357.70
2019-05-09T23:49:42.391Z,98356.28
2019-05-09T23:52:10.311Z,98355.55
2019-05-09T23:54:56.313Z,98363.22
2019-05-09T23:57:42.384Z,98368.86
